Airfield :
LOGIN :

Register | Disclaimer

   EN    FR    IT 

 










Legend :    VFR   Marginal VFR   IFR   Intensive IFR   Very Intensive IFR
Visi :
Ceiling :
>= 8 km
>= 3000ft
5 to 8 km
1000 to 3000 ft
1500m to 5 km
500 to 1000 ft
800 to 1500m
200 to 500 ft
< 800m
< 200 ft
Symbols :   Thunderstorms  Fog  Heavy snow  Heavy precipitations  Wind > 20 kt
SIGMETs :     Misc.  Thunderstorms  Icing  Turbulence  Mountain Waves  Volcanic Ashes






- Airport Elevation : 408 ft
- IATA code : FKB


EDSB - Karlsruhe Baden Baden

CURRENT METAR :
  • 171150Z 09005KT 040V160 9999 -SHRA FEW035 SCT042TCU BKN049 08/04 Q1011

EXPIRED METARs :
  • 171120Z 15007KT 9999 FEW036 SCT049 09/07 Q1011
  • 171050Z 16004KT 130V250 9999 VCSH FEW010 BKN034TCU 08/05 Q1011
  • 171020Z 21003KT 180V260 9999 VCSH SCT015TCU BKN024 OVC028 07/05 Q1011 RESHRA
  • 170950Z 19003KT 9999 FEW016 SCT025 BKN058 08/05 Q1012
  • 170920Z VRB02KT 9999 FEW012 OVC037 07/05 Q1012
  • 170850Z 28003KT 230V320 9999 OVC028 07/06 Q1012
  • 170820Z 31003KT 240V020 9000 RA FEW012 OVC027 06/06 Q1011
  • 170750Z VRB02KT 9999 -RA FEW018 OVC024 07/06 Q1011
  • 170720Z 23003KT 190V270 9999 -RA FEW009 SCT017 OVC021 06/06 Q1011

TAF TAF EDSB
Valid from the 17 at 12:00 until the 18 at 12:00 UTC


171100Z 1712/1812 27007KT 9999 BKN030
TEMPO 1712/1721 SHRA BKN020CB
PROB30
TEMPO 1712/1719 4000 TSRA BKN012 BKN015CB
BECMG 1718/1720 20005KT
PROB40
TEMPO 1722/1807 BKN010
BECMG 1807/1809 01006KT



MET'MAP, your aeronautical weather chart ! - Copyright ORBIFLY December 2007 - Disclaimer

ORBIFLY MET'MAP TEAM :

Programming & Development : Alexandra Zaïnal
Original concept : Baudouin d'Aumeries
Technical & hardware support : Manuel Goepfert
Assistance : Marc-Olivier Méhu




SOURCES & CREDITS :

   NOAA